createdAt,value
2022-09-28T00:00:25.943Z,25.60
2022-09-28T00:05:49.044Z,27.70
2022-09-28T00:16:07.594Z,27.90
2022-09-28T00:21:19.772Z,25.50
2022-09-28T00:26:23.996Z,30.20
2022-09-28T00:31:30.400Z,31.40
2022-09-28T00:36:35.225Z,28.60
2022-09-28T00:41:39.352Z,34.80
2022-09-28T00:46:42.514Z,28.50
2022-09-28T00:56:50.819Z,26.90
2022-09-28T01:01:54.069Z,26.70
2022-09-28T01:06:59.389Z,26.00
2022-09-28T01:12:03.015Z,20.30
2022-09-28T01:17:41.848Z,19.00
2022-09-28T01:23:19.366Z,12.60
2022-09-28T01:28:28.303Z,12.00
2022-09-28T01:33:40.319Z,8.50
2022-09-28T01:39:11.275Z,7.70
2022-09-28T01:44:18.692Z,6.30
2022-09-28T01:49:27.931Z,5.30
2022-09-28T01:54:53.159Z,5.20
2022-09-28T02:00:03.737Z,4.80
2022-09-28T02:05:20.872Z,7.60
2022-09-28T02:10:30.633Z,6.60
2022-09-28T02:15:33.637Z,6.80
2022-09-28T02:20:41.169Z,5.30
2022-09-28T02:25:51.896Z,4.00
2022-09-28T02:30:55.650Z,2.80
2022-09-28T02:36:01.115Z,5.70
2022-09-28T02:41:16.915Z,2.50
2022-09-28T02:46:41.146Z,1.80
2022-09-28T02:52:15.779Z,2.40
2022-09-28T02:57:27.884Z,2.80
2022-09-28T03:02:49.645Z,2.50
2022-09-28T03:08:01.074Z,3.30
2022-09-28T03:13:05.276Z,1.90
2022-09-28T03:18:08.663Z,2.00
2022-09-28T03:23:27.123Z,2.10
2022-09-28T03:28:30.303Z,2.70
2022-09-28T03:33:33.367Z,1.60
2022-09-28T03:38:36.468Z,2.50
2022-09-28T03:43:40.058Z,2.80
2022-09-28T03:48:43.258Z,2.10
2022-09-28T03:53:46.291Z,1.90
2022-09-28T03:58:49.375Z,2.10
2022-09-28T04:03:56.153Z,1.60
2022-09-28T04:08:59.462Z,1.90
2022-09-28T04:14:02.570Z,3.00
2022-09-28T04:24:10.400Z,2.20
2022-09-28T04:29:16.298Z,2.10
2022-09-28T04:34:22.095Z,3.50
2022-09-28T04:39:25.166Z,2.40
2022-09-28T04:49:31.706Z,2.50
2022-09-28T04:54:34.841Z,2.90
2022-09-28T04:59:37.954Z,3.20
2022-09-28T05:04:41.434Z,2.60
2022-09-28T05:09:44.559Z,3.80
2022-09-28T05:14:47.846Z,6.70
2022-09-28T05:24:55.388Z,3.80
2022-09-28T05:29:58.599Z,5.70
2022-09-28T05:40:06.793Z,4.80
2022-09-28T05:45:10.781Z,6.10
2022-09-28T05:50:16.344Z,7.10
2022-09-28T05:55:19.557Z,8.10
2022-09-28T06:00:23.600Z,7.80
2022-09-28T06:05:28.227Z,13.20
2022-09-28T06:10:31.938Z,11.10
2022-09-28T06:15:37.124Z,9.10
2022-09-28T06:20:42.553Z,27.10
2022-09-28T06:25:47.058Z,6.80
2022-09-28T06:30:51.297Z,6.20
2022-09-28T06:35:55.062Z,14.00
2022-09-28T06:40:59.528Z,223.30
2022-09-28T06:46:04.102Z,50.30
2022-09-28T06:51:08.598Z,22.80
2022-09-28T06:56:13.054Z,8.30
2022-09-28T07:01:17.481Z,5.90
2022-09-28T07:06:24.735Z,3.40
2022-09-28T07:11:30.460Z,4.00
2022-09-28T07:16:57.512Z,6.80
2022-09-28T07:22:04.478Z,4.60
2022-09-28T07:27:10.132Z,9.30
2022-09-28T07:32:13.446Z,14.10
2022-09-28T07:37:19.109Z,9.10
2022-09-28T07:42:22.532Z,13.30
2022-09-28T07:47:34.582Z,8.40
2022-09-28T07:52:38.360Z,12.00
2022-09-28T07:57:41.977Z,7.10
2022-09-28T08:02:45.353Z,6.70
2022-09-28T08:13:02.142Z,6.90
2022-09-28T08:18:07.309Z,7.80
2022-09-28T08:23:11.791Z,7.30
2022-09-28T08:28:17.823Z,7.70
2022-09-28T08:33:21.942Z,7.30
2022-09-28T08:38:27.072Z,8.50
2022-09-28T08:44:05.019Z,8.00
2022-09-28T08:49:30.738Z,7.70
2022-09-28T08:54:48.996Z,6.20
2022-09-28T08:59:58.726Z,5.60
2022-09-28T09:05:06.866Z,6.70
2022-09-28T09:10:51.070Z,5.80
2022-09-28T09:16:32.845Z,5.80
2022-09-28T09:21:56.360Z,4.80
2022-09-28T09:27:39.612Z,5.50
2022-09-28T09:33:01.354Z,5.30
2022-09-28T09:38:19.717Z,5.80
2022-09-28T09:43:31.595Z,4.60
2022-09-28T09:49:01.054Z,3.50
2022-09-28T09:54:12.557Z,4.70
2022-09-28T09:59:22.504Z,4.20
2022-09-28T10:04:35.424Z,3.70
2022-09-28T10:09:43.597Z,3.70
2022-09-28T10:14:47.412Z,4.00
2022-09-28T10:19:50.714Z,3.50
2022-09-28T10:24:57.924Z,3.30
2022-09-28T10:30:16.796Z,3.20
2022-09-28T10:35:20.203Z,3.40
2022-09-28T10:40:50.733Z,4.00
2022-09-28T10:46:24.009Z,5.50
2022-09-28T10:56:46.397Z,5.10
2022-09-28T11:01:56.216Z,3.40
2022-09-28T11:07:02.122Z,2.40
2022-09-28T11:12:13.794Z,2.70
2022-09-28T11:17:19.055Z,3.30
2022-09-28T11:22:34.447Z,3.10
2022-09-28T11:27:37.857Z,2.90
2022-09-28T11:32:45.720Z,3.00
2022-09-28T11:38:17.863Z,3.90
2022-09-28T11:44:01.129Z,3.00
2022-09-28T11:54:33.843Z,3.50
2022-09-28T11:59:46.981Z,3.80
2022-09-28T12:05:17.202Z,3.40
2022-09-28T12:10:48.496Z,3.60
2022-09-28T12:16:32.749Z,4.10
2022-09-28T12:21:53.378Z,2.90
2022-09-28T12:27:21.261Z,3.30
2022-09-28T12:32:37.782Z,3.50
2022-09-28T12:38:14.989Z,4.60
2022-09-28T12:43:54.853Z,3.70
2022-09-28T12:55:05.417Z,3.00
2022-09-28T13:00:14.989Z,3.00
2022-09-28T13:05:47.056Z,2.80
2022-09-28T13:11:20.766Z,3.30
2022-09-28T13:16:34.217Z,2.80
2022-09-28T13:21:47.778Z,2.70
2022-09-28T13:26:52.583Z,2.90
2022-09-28T13:32:00.452Z,3.10
2022-09-28T13:37:17.667Z,3.40
2022-09-28T13:42:42.280Z,2.70
2022-09-28T13:47:52.872Z,4.00
2022-09-28T13:53:09.474Z,2.20
2022-09-28T13:58:22.608Z,3.50
2022-09-28T14:03:43.734Z,2.10
2022-09-28T14:09:13.694Z,2.30
2022-09-28T14:14:18.304Z,3.20
2022-09-28T14:19:32.572Z,5.10
2022-09-28T14:24:56.085Z,2.10
2022-09-28T14:35:39.845Z,2.50
2022-09-28T14:41:11.528Z,2.70
2022-09-28T14:46:19.318Z,4.60
2022-09-28T14:51:38.102Z,3.30
2022-09-28T14:56:43.972Z,3.80
2022-09-28T15:02:17.272Z,3.50
2022-09-28T15:07:26.816Z,4.70
2022-09-28T15:12:31.794Z,3.70
2022-09-28T15:17:40.005Z,3.40
2022-09-28T15:22:52.267Z,3.70
2022-09-28T15:28:01.959Z,5.70
2022-09-28T15:33:48.560Z,5.00
2022-09-28T15:39:07.170Z,5.10
2022-09-28T15:44:12.577Z,4.40
2022-09-28T15:49:47.516Z,5.00
2022-09-28T15:54:56.497Z,4.50
2022-09-28T16:00:07.028Z,10.40
2022-09-28T16:05:36.915Z,62.80
2022-09-28T16:10:58.705Z,38.70
2022-09-28T16:16:02.814Z,55.30
2022-09-28T16:21:28.820Z,77.50
2022-09-28T16:26:37.898Z,107.10
2022-09-28T16:31:44.408Z,186.00
2022-09-28T16:36:49.664Z,429.10
2022-09-28T16:41:56.971Z,213.00
2022-09-28T16:47:01.307Z,108.00
2022-09-28T16:52:13.853Z,144.40
2022-09-28T16:57:18.490Z,86.90
2022-09-28T17:08:01.042Z,284.90
2022-09-28T17:13:04.666Z,90.30
2022-09-28T17:18:09.092Z,139.10
2022-09-28T17:23:12.710Z,156.20
2022-09-28T17:33:25.612Z,124.90
2022-09-28T17:38:29.704Z,95.80
2022-09-28T17:48:36.994Z,97.30
2022-09-28T17:53:41.344Z,66.10
2022-09-28T17:58:45.404Z,65.00
2022-09-28T18:03:51.085Z,203.00
2022-09-28T18:08:55.931Z,282.70
2022-09-28T18:14:01.052Z,178.00
2022-09-28T18:19:07.486Z,161.70
2022-09-28T18:24:13.029Z,92.40
2022-09-28T18:29:20.651Z,95.50
2022-09-28T18:34:26.121Z,230.80
2022-09-28T18:39:31.255Z,111.50
2022-09-28T18:44:36.185Z,74.10
2022-09-28T18:49:46.450Z,62.60
2022-09-28T18:54:51.277Z,91.20
2022-09-28T18:59:55.884Z,116.80
2022-09-28T19:05:00.398Z,67.30
2022-09-28T19:10:06.304Z,47.80
2022-09-28T19:15:12.358Z,31.30
2022-09-28T19:20:20.512Z,40.70
2022-09-28T19:25:27.537Z,54.20
2022-09-28T19:30:33.195Z,28.20
2022-09-28T19:35:37.840Z,30.60
2022-09-28T19:40:42.777Z,23.50
2022-09-28T19:45:51.174Z,30.70
2022-09-28T19:51:07.079Z,30.60
2022-09-28T19:56:10.991Z,50.70
2022-09-28T20:01:14.328Z,90.50
2022-09-28T20:06:17.912Z,24.90
2022-09-28T20:11:22.137Z,20.10
2022-09-28T20:16:28.111Z,42.90
2022-09-28T20:21:31.928Z,32.00
2022-09-28T20:26:37.954Z,9.20
2022-09-28T20:31:41.430Z,8.80
2022-09-28T20:36:45.218Z,6.40
2022-09-28T20:41:49.886Z,6.40
2022-09-28T20:46:53.399Z,16.10
2022-09-28T20:51:57.221Z,11.40
2022-09-28T20:57:00.360Z,8.00
2022-09-28T21:02:03.882Z,9.80
2022-09-28T21:07:08.869Z,8.00
2022-09-28T21:12:13.133Z,4.70
2022-09-28T21:17:16.853Z,4.70
2022-09-28T21:27:23.368Z,4.70
2022-09-28T21:37:29.777Z,4.20
2022-09-28T21:42:32.782Z,4.00
2022-09-28T21:52:39.853Z,7.10
2022-09-28T21:57:43.227Z,6.70
2022-09-28T22:07:49.642Z,11.50
2022-09-28T22:17:55.757Z,12.40
2022-09-28T22:22:58.857Z,8.40
2022-09-28T22:28:01.963Z,7.80
2022-09-28T22:33:05.172Z,12.30
2022-09-28T22:38:08.689Z,13.80
2022-09-28T22:43:11.895Z,9.70
2022-09-28T22:53:19.744Z,9.20
2022-09-28T22:58:23.979Z,8.30
2022-09-28T23:03:27.184Z,8.60
2022-09-28T23:08:30.499Z,13.60
2022-09-28T23:18:41.126Z,10.50
2022-09-28T23:23:45.783Z,12.20
2022-09-28T23:28:49.063Z,18.10
2022-09-28T23:43:59.204Z,13.00
2022-09-28T23:49:02.514Z,12.30
2022-09-28T23:54:06.915Z,15.40
2022-09-28T23:59:09.956Z,12.20
